sensor_id;sensor_type;location;lat;lon;timestamp;temperature;humidity
6118;DHT22;3089;48.202;11.510;2023-04-19T00:01:55;8.40;99.90
6118;DHT22;3089;48.202;11.510;2023-04-19T00:04:23;8.20;99.90
6118;DHT22;3089;48.202;11.510;2023-04-19T00:06:52;8.10;99.90
6118;DHT22;3089;48.202;11.510;2023-04-19T00:09:20;8.00;99.90
6118;DHT22;3089;48.202;11.510;2023-04-19T00:11:48;8.00;99.90
6118;DHT22;3089;48.202;11.510;2023-04-19T00:14:17;8.20;99.90
6118;DHT22;3089;48.202;11.510;2023-04-19T00:16:45;8.10;99.90
6118;DHT22;3089;48.202;11.510;2023-04-19T00:19:13;8.20;99.90
6118;DHT22;3089;48.202;11.510;2023-04-19T00:21:40;8.30;99.90
6118;DHT22;3089;48.202;11.510;2023-04-19T00:24:08;8.20;99.90
6118;DHT22;3089;48.202;11.510;2023-04-19T00:26:36;8.40;99.90
6118;DHT22;3089;48.202;11.510;2023-04-19T00:29:04;8.40;99.90
6118;DHT22;3089;48.202;11.510;2023-04-19T00:31:33;8.20;99.90
6118;DHT22;3089;48.202;11.510;2023-04-19T00:34:01;8.30;99.90
6118;DHT22;3089;48.202;11.510;2023-04-19T00:36:28;8.10;99.90
6118;DHT22;3089;48.202;11.510;2023-04-19T00:38:56;8.20;99.90
6118;DHT22;3089;48.202;11.510;2023-04-19T00:41:24;8.20;99.90
6118;DHT22;3089;48.202;11.510;2023-04-19T00:43:52;8.10;99.90
6118;DHT22;3089;48.202;11.510;2023-04-19T00:46:20;8.10;99.90
6118;DHT22;3089;48.202;11.510;2023-04-19T00:48:49;8.00;99.90
6118;DHT22;3089;48.202;11.510;2023-04-19T00:51:17;8.00;99.90
6118;DHT22;3089;48.202;11.510;2023-04-19T00:53:47;8.20;99.90
6118;DHT22;3089;48.202;11.510;2023-04-19T00:56:16;8.00;99.90
6118;DHT22;3089;48.202;11.510;2023-04-19T00:58:44;8.00;99.90
6118;DHT22;3089;48.202;11.510;2023-04-19T01:01:13;8.00;99.90
6118;DHT22;3089;48.202;11.510;2023-04-19T01:03:41;8.00;99.90
6118;DHT22;3089;48.202;11.510;2023-04-19T01:06:10;8.00;99.90
6118;DHT22;3089;48.202;11.510;2023-04-19T01:08:38;8.00;99.90
6118;DHT22;3089;48.202;11.510;2023-04-19T01:11:06;7.90;99.90
6118;DHT22;3089;48.202;11.510;2023-04-19T01:13:34;7.90;99.90
6118;DHT22;3089;48.202;11.510;2023-04-19T01:16:02;8.00;99.90
6118;DHT22;3089;48.202;11.510;2023-04-19T01:18:30;8.00;99.90
6118;DHT22;3089;48.202;11.510;2023-04-19T01:21:03;8.00;99.90
6118;DHT22;3089;48.202;11.510;2023-04-19T01:23:33;8.10;99.90
6118;DHT22;3089;48.202;11.510;2023-04-19T01:26:01;8.00;99.90
6118;DHT22;3089;48.202;11.510;2023-04-19T01:28:29;8.00;99.90
6118;DHT22;3089;48.202;11.510;2023-04-19T01:30:56;8.10;99.90
6118;DHT22;3089;48.202;11.510;2023-04-19T01:33:24;8.20;99.90
6118;DHT22;3089;48.202;11.510;2023-04-19T01:35:52;8.10;99.90
6118;DHT22;3089;48.202;11.510;2023-04-19T01:38:20;8.20;99.90
6118;DHT22;3089;48.202;11.510;2023-04-19T01:40:49;8.30;99.90
6118;DHT22;3089;48.202;11.510;2023-04-19T01:43:17;8.20;99.90
6118;DHT22;3089;48.202;11.510;2023-04-19T01:45:45;8.10;99.90
6118;DHT22;3089;48.202;11.510;2023-04-19T01:48:13;8.10;99.90
6118;DHT22;3089;48.202;11.510;2023-04-19T01:50:40;8.20;99.90
6118;DHT22;3089;48.202;11.510;2023-04-19T01:53:08;8.10;99.90
6118;DHT22;3089;48.202;11.510;2023-04-19T01:55:36;8.20;99.90
6118;DHT22;3089;48.202;11.510;2023-04-19T01:58:05;8.20;99.90
6118;DHT22;3089;48.202;11.510;2023-04-19T02:00:33;8.20;99.90
6118;DHT22;3089;48.202;11.510;2023-04-19T02:03:01;8.10;99.90
6118;DHT22;3089;48.202;11.510;2023-04-19T02:05:29;8.10;99.90
6118;DHT22;3089;48.202;11.510;2023-04-19T02:07:57;8.00;99.90
6118;DHT22;3089;48.202;11.510;2023-04-19T02:10:26;8.00;99.90
6118;DHT22;3089;48.202;11.510;2023-04-19T02:12:54;7.80;99.90
6118;DHT22;3089;48.202;11.510;2023-04-19T02:15:23;8.00;99.90
6118;DHT22;3089;48.202;11.510;2023-04-19T02:17:51;8.10;99.90
6118;DHT22;3089;48.202;11.510;2023-04-19T02:20:19;8.20;99.90
6118;DHT22;3089;48.202;11.510;2023-04-19T02:22:46;8.20;99.90
6118;DHT22;3089;48.202;11.510;2023-04-19T02:25:14;8.20;99.90
6118;DHT22;3089;48.202;11.510;2023-04-19T02:27:42;8.20;99.90
6118;DHT22;3089;48.202;11.510;2023-04-19T02:30:10;8.30;99.90
6118;DHT22;3089;48.202;11.510;2023-04-19T02:32:40;8.20;99.90
6118;DHT22;3089;48.202;11.510;2023-04-19T02:35:08;8.20;99.90
6118;DHT22;3089;48.202;11.510;2023-04-19T02:37:36;8.20;99.90
6118;DHT22;3089;48.202;11.510;2023-04-19T02:40:05;8.20;99.90
6118;DHT22;3089;48.202;11.510;2023-04-19T02:42:33;8.10;99.90
6118;DHT22;3089;48.202;11.510;2023-04-19T02:45:01;8.20;99.90
6118;DHT22;3089;48.202;11.510;2023-04-19T02:47:29;8.10;99.90
6118;DHT22;3089;48.202;11.510;2023-04-19T02:49:59;8.10;99.90
6118;DHT22;3089;48.202;11.510;2023-04-19T02:52:26;8.00;99.90
6118;DHT22;3089;48.202;11.510;2023-04-19T02:54:54;8.10;99.90
6118;DHT22;3089;48.202;11.510;2023-04-19T02:57:22;8.00;99.90
6118;DHT22;3089;48.202;11.510;2023-04-19T02:59:50;8.00;99.90
6118;DHT22;3089;48.202;11.510;2023-04-19T03:02:18;8.00;99.90
6118;DHT22;3089;48.202;11.510;2023-04-19T03:04:46;8.20;99.90
6118;DHT22;3089;48.202;11.510;2023-04-19T03:07:15;8.10;99.90
6118;DHT22;3089;48.202;11.510;2023-04-19T03:09:43;8.00;99.90
6118;DHT22;3089;48.202;11.510;2023-04-19T03:12:11;8.20;99.90
6118;DHT22;3089;48.202;11.510;2023-04-19T03:14:38;8.20;99.90
6118;DHT22;3089;48.202;11.510;2023-04-19T03:17:06;8.20;99.90
6118;DHT22;3089;48.202;11.510;2023-04-19T03:19:34;8.30;99.90
6118;DHT22;3089;48.202;11.510;2023-04-19T03:22:02;8.30;99.90
6118;DHT22;3089;48.202;11.510;2023-04-19T03:24:31;8.30;99.90
6118;DHT22;3089;48.202;11.510;2023-04-19T03:27:03;8.30;99.90
6118;DHT22;3089;48.202;11.510;2023-04-19T03:29:31;8.20;99.90
6118;DHT22;3089;48.202;11.510;2023-04-19T03:31:59;8.20;99.90
6118;DHT22;3089;48.202;11.510;2023-04-19T03:34:27;8.20;99.90
6118;DHT22;3089;48.202;11.510;2023-04-19T03:36:55;8.20;99.90
6118;DHT22;3089;48.202;11.510;2023-04-19T03:39:23;8.30;99.90
6118;DHT22;3089;48.202;11.510;2023-04-19T03:41:52;8.20;99.90
6118;DHT22;3089;48.202;11.510;2023-04-19T03:44:20;8.20;99.90
6118;DHT22;3089;48.202;11.510;2023-04-19T03:46:47;8.20;99.90
6118;DHT22;3089;48.202;11.510;2023-04-19T03:49:15;8.20;99.90
6118;DHT22;3089;48.202;11.510;2023-04-19T03:51:43;8.20;99.90
6118;DHT22;3089;48.202;11.510;2023-04-19T03:54:11;8.20;99.90
6118;DHT22;3089;48.202;11.510;2023-04-19T03:56:39;8.20;99.90
6118;DHT22;3089;48.202;11.510;2023-04-19T03:59:08;8.30;99.90
6118;DHT22;3089;48.202;11.510;2023-04-19T04:01:36;8.20;99.90
6118;DHT22;3089;48.202;11.510;2023-04-19T04:04:07;8.20;99.90
6118;DHT22;3089;48.202;11.510;2023-04-19T04:06:36;8.20;99.90
6118;DHT22;3089;48.202;11.510;2023-04-19T04:09:04;8.20;99.90
6118;DHT22;3089;48.202;11.510;2023-04-19T04:11:31;8.10;99.90
6118;DHT22;3089;48.202;11.510;2023-04-19T04:13:59;8.00;99.90
6118;DHT22;3089;48.202;11.510;2023-04-19T04:16:28;8.10;99.90
6118;DHT22;3089;48.202;11.510;2023-04-19T04:18:56;8.10;99.90
6118;DHT22;3089;48.202;11.510;2023-04-19T04:21:24;8.10;99.90
6118;DHT22;3089;48.202;11.510;2023-04-19T04:23:52;8.10;99.90
6118;DHT22;3089;48.202;11.510;2023-04-19T04:26:20;8.10;99.90
6118;DHT22;3089;48.202;11.510;2023-04-19T04:28:50;8.10;99.90
6118;DHT22;3089;48.202;11.510;2023-04-19T04:31:19;8.10;99.90
6118;DHT22;3089;48.202;11.510;2023-04-19T04:33:48;8.10;99.90
6118;DHT22;3089;48.202;11.510;2023-04-19T04:36:16;8.10;99.90
6118;DHT22;3089;48.202;11.510;2023-04-19T04:38:44;8.10;99.90
6118;DHT22;3089;48.202;11.510;2023-04-19T04:41:12;8.10;99.90
6118;DHT22;3089;48.202;11.510;2023-04-19T04:43:39;8.10;99.90
6118;DHT22;3089;48.202;11.510;2023-04-19T04:46:08;8.10;99.90
6118;DHT22;3089;48.202;11.510;2023-04-19T04:48:35;8.10;99.90
6118;DHT22;3089;48.202;11.510;2023-04-19T04:51:05;8.10;99.90
6118;DHT22;3089;48.202;11.510;2023-04-19T04:53:32;8.10;99.90
6118;DHT22;3089;48.202;11.510;2023-04-19T04:56:00;8.10;99.90
6118;DHT22;3089;48.202;11.510;2023-04-19T04:58:28;8.00;99.90
6118;DHT22;3089;48.202;11.510;2023-04-19T05:00:56;8.00;99.90
6118;DHT22;3089;48.202;11.510;2023-04-19T05:03:24;8.10;99.90
6118;DHT22;3089;48.202;11.510;2023-04-19T05:05:53;8.10;99.90
6118;DHT22;3089;48.202;11.510;2023-04-19T05:08:22;8.10;99.90
6118;DHT22;3089;48.202;11.510;2023-04-19T05:10:50;8.10;99.90
6118;DHT22;3089;48.202;11.510;2023-04-19T05:13:17;8.10;99.90
6118;DHT22;3089;48.202;11.510;2023-04-19T05:15:45;8.20;99.90
6118;DHT22;3089;48.202;11.510;2023-04-19T05:18:13;8.10;99.90
6118;DHT22;3089;48.202;11.510;2023-04-19T05:20:41;8.10;99.90
6118;DHT22;3089;48.202;11.510;2023-04-19T05:23:09;8.10;99.90
6118;DHT22;3089;48.202;11.510;2023-04-19T05:25:38;8.20;99.90
6118;DHT22;3089;48.202;11.510;2023-04-19T05:28:06;8.10;99.90
6118;DHT22;3089;48.202;11.510;2023-04-19T05:30:34;8.00;99.90
6118;DHT22;3089;48.202;11.510;2023-04-19T05:33:02;8.00;99.90
6118;DHT22;3089;48.202;11.510;2023-04-19T05:35:30;8.10;99.90
6118;DHT22;3089;48.202;11.510;2023-04-19T05:37:58;8.00;99.90
6118;DHT22;3089;48.202;11.510;2023-04-19T05:40:26;8.10;99.90
6118;DHT22;3089;48.202;11.510;2023-04-19T05:42:56;8.10;99.90
6118;DHT22;3089;48.202;11.510;2023-04-19T05:45:24;8.10;99.90
6118;DHT22;3089;48.202;11.510;2023-04-19T05:47:52;8.10;99.90
6118;DHT22;3089;48.202;11.510;2023-04-19T05:50:20;8.10;99.90
6118;DHT22;3089;48.202;11.510;2023-04-19T05:52:48;8.20;99.90
6118;DHT22;3089;48.202;11.510;2023-04-19T05:55:16;8.10;99.90
6118;DHT22;3089;48.202;11.510;2023-04-19T05:57:44;8.10;99.90
6118;DHT22;3089;48.202;11.510;2023-04-19T06:00:14;8.10;99.90
6118;DHT22;3089;48.202;11.510;2023-04-19T06:02:42;8.00;99.90
6118;DHT22;3089;48.202;11.510;2023-04-19T06:05:11;8.10;99.90
6118;DHT22;3089;48.202;11.510;2023-04-19T06:07:39;8.00;99.90
6118;DHT22;3089;48.202;11.510;2023-04-19T06:10:20;7.90;99.90
6118;DHT22;3089;48.202;11.510;2023-04-19T06:12:48;8.00;99.90
6118;DHT22;3089;48.202;11.510;2023-04-19T06:15:17;8.10;99.90
6118;DHT22;3089;48.202;11.510;2023-04-19T06:17:45;8.10;99.90
6118;DHT22;3089;48.202;11.510;2023-04-19T06:20:13;8.10;99.90
6118;DHT22;3089;48.202;11.510;2023-04-19T06:22:41;8.10;99.90
6118;DHT22;3089;48.202;11.510;2023-04-19T06:25:10;8.10;99.90
6118;DHT22;3089;48.202;11.510;2023-04-19T06:27:38;8.00;99.90
6118;DHT22;3089;48.202;11.510;2023-04-19T06:30:07;8.00;99.90
6118;DHT22;3089;48.202;11.510;2023-04-19T06:32:36;7.90;99.90
6118;DHT22;3089;48.202;11.510;2023-04-19T06:35:05;8.00;99.90
6118;DHT22;3089;48.202;11.510;2023-04-19T06:37:33;8.00;99.90
6118;DHT22;3089;48.202;11.510;2023-04-19T06:40:01;8.10;99.90
6118;DHT22;3089;48.202;11.510;2023-04-19T06:42:30;8.10;99.90
6118;DHT22;3089;48.202;11.510;2023-04-19T06:44:58;8.10;99.90
6118;DHT22;3089;48.202;11.510;2023-04-19T06:47:27;8.10;99.90
6118;DHT22;3089;48.202;11.510;2023-04-19T06:49:57;8.20;99.90
6118;DHT22;3089;48.202;11.510;2023-04-19T06:52:25;8.20;99.90
6118;DHT22;3089;48.202;11.510;2023-04-19T06:54:53;8.20;99.90
6118;DHT22;3089;48.202;11.510;2023-04-19T06:57:20;8.30;99.90
6118;DHT22;3089;48.202;11.510;2023-04-19T06:59:48;8.30;99.90
6118;DHT22;3089;48.202;11.510;2023-04-19T07:02:16;8.30;99.90
6118;DHT22;3089;48.202;11.510;2023-04-19T07:04:44;8.30;99.90
6118;DHT22;3089;48.202;11.510;2023-04-19T07:07:14;8.30;99.90
6118;DHT22;3089;48.202;11.510;2023-04-19T07:09:42;8.20;99.90
6118;DHT22;3089;48.202;11.510;2023-04-19T07:12:10;8.30;99.90
6118;DHT22;3089;48.202;11.510;2023-04-19T07:14:38;8.20;99.90
6118;DHT22;3089;48.202;11.510;2023-04-19T07:17:05;8.20;99.90
6118;DHT22;3089;48.202;11.510;2023-04-19T07:19:33;8.10;99.90
6118;DHT22;3089;48.202;11.510;2023-04-19T07:22:02;8.20;99.90
6118;DHT22;3089;48.202;11.510;2023-04-19T07:24:32;8.30;99.90
6118;DHT22;3089;48.202;11.510;2023-04-19T07:27:00;8.40;99.90
6118;DHT22;3089;48.202;11.510;2023-04-19T07:29:28;8.50;99.90
6118;DHT22;3089;48.202;11.510;2023-04-19T07:31:56;8.60;99.90
6118;DHT22;3089;48.202;11.510;2023-04-19T07:34:27;8.50;99.90
6118;DHT22;3089;48.202;11.510;2023-04-19T07:36:55;8.60;99.90
6118;DHT22;3089;48.202;11.510;2023-04-19T07:39:22;8.60;99.90
6118;DHT22;3089;48.202;11.510;2023-04-19T07:41:52;8.70;99.90
6118;DHT22;3089;48.202;11.510;2023-04-19T07:44:20;8.80;99.90
6118;DHT22;3089;48.202;11.510;2023-04-19T07:46:47;8.80;99.90
6118;DHT22;3089;48.202;11.510;2023-04-19T07:49:16;8.80;99.90
6118;DHT22;3089;48.202;11.510;2023-04-19T07:51:44;8.80;99.90
6118;DHT22;3089;48.202;11.510;2023-04-19T07:54:12;9.00;99.90
6118;DHT22;3089;48.202;11.510;2023-04-19T07:56:42;9.10;99.90
6118;DHT22;3089;48.202;11.510;2023-04-19T07:59:11;9.20;99.90
6118;DHT22;3089;48.202;11.510;2023-04-19T08:01:38;9.20;99.90
6118;DHT22;3089;48.202;11.510;2023-04-19T08:04:06;9.30;99.90
6118;DHT22;3089;48.202;11.510;2023-04-19T08:06:36;9.40;99.90
6118;DHT22;3089;48.202;11.510;2023-04-19T08:09:05;9.20;99.90
6118;DHT22;3089;48.202;11.510;2023-04-19T08:11:33;9.30;99.90
6118;DHT22;3089;48.202;11.510;2023-04-19T08:14:04;9.30;99.90
6118;DHT22;3089;48.202;11.510;2023-04-19T08:16:49;9.60;99.90
6118;DHT22;3089;48.202;11.510;2023-04-19T08:19:19;9.50;99.90
6118;DHT22;3089;48.202;11.510;2023-04-19T08:21:47;9.50;99.90
6118;DHT22;3089;48.202;11.510;2023-04-19T08:24:15;9.60;99.90
6118;DHT22;3089;48.202;11.510;2023-04-19T08:26:43;9.70;99.90
6118;DHT22;3089;48.202;11.510;2023-04-19T08:29:19;9.70;99.90
6118;DHT22;3089;48.202;11.510;2023-04-19T08:31:49;9.70;99.90
6118;DHT22;3089;48.202;11.510;2023-04-19T08:34:17;9.90;99.90
6118;DHT22;3089;48.202;11.510;2023-04-19T08:36:44;10.00;99.90
6118;DHT22;3089;48.202;11.510;2023-04-19T08:39:29;10.10;99.90
6118;DHT22;3089;48.202;11.510;2023-04-19T08:42:03;9.90;99.90
6118;DHT22;3089;48.202;11.510;2023-04-19T08:44:45;9.80;99.90
6118;DHT22;3089;48.202;11.510;2023-04-19T08:47:17;10.00;99.90
6118;DHT22;3089;48.202;11.510;2023-04-19T08:49:59;10.00;99.90
6118;DHT22;3089;48.202;11.510;2023-04-19T08:52:46;10.00;99.90
6118;DHT22;3089;48.202;11.510;2023-04-19T08:55:25;9.80;99.90
6118;DHT22;3089;48.202;11.510;2023-04-19T08:57:55;9.80;99.90
6118;DHT22;3089;48.202;11.510;2023-04-19T09:00:23;9.80;99.90
6118;DHT22;3089;48.202;11.510;2023-04-19T09:02:53;9.90;99.90
6118;DHT22;3089;48.202;11.510;2023-04-19T09:05:21;9.80;99.90
6118;DHT22;3089;48.202;11.510;2023-04-19T09:07:50;10.00;99.90
6118;DHT22;3089;48.202;11.510;2023-04-19T09:10:19;10.10;99.90
6118;DHT22;3089;48.202;11.510;2023-04-19T09:12:59;10.20;99.90
6118;DHT22;3089;48.202;11.510;2023-04-19T09:15:35;10.40;99.90
6118;DHT22;3089;48.202;11.510;2023-04-19T09:18:06;10.40;99.90
6118;DHT22;3089;48.202;11.510;2023-04-19T09:20:36;10.30;99.90
6118;DHT22;3089;48.202;11.510;2023-04-19T09:23:06;10.30;99.90
6118;DHT22;3089;48.202;11.510;2023-04-19T09:25:34;10.60;99.90
6118;DHT22;3089;48.202;11.510;2023-04-19T09:28:22;11.00;99.90
6118;DHT22;3089;48.202;11.510;2023-04-19T09:30:51;11.10;99.90
6118;DHT22;3089;48.202;11.510;2023-04-19T09:33:32;11.70;99.90
6118;DHT22;3089;48.202;11.510;2023-04-19T09:36:01;11.50;99.90
6118;DHT22;3089;48.202;11.510;2023-04-19T09:38:29;11.50;99.90
6118;DHT22;3089;48.202;11.510;2023-04-19T09:41:05;11.30;99.90
6118;DHT22;3089;48.202;11.510;2023-04-19T09:43:33;11.10;99.90
6118;DHT22;3089;48.202;11.510;2023-04-19T09:46:32;11.20;99.90
6118;DHT22;3089;48.202;11.510;2023-04-19T09:49:18;11.00;99.90
6118;DHT22;3089;48.202;11.510;2023-04-19T09:52:03;10.90;99.90
6118;DHT22;3089;48.202;11.510;2023-04-19T09:54:32;10.90;99.90
6118;DHT22;3089;48.202;11.510;2023-04-19T09:57:00;10.80;99.90
6118;DHT22;3089;48.202;11.510;2023-04-19T09:59:28;10.80;99.90
6118;DHT22;3089;48.202;11.510;2023-04-19T10:01:58;10.90;99.90
6118;DHT22;3089;48.202;11.510;2023-04-19T10:04:29;10.90;99.90
6118;DHT22;3089;48.202;11.510;2023-04-19T10:07:17;11.10;99.90
6118;DHT22;3089;48.202;11.510;2023-04-19T10:09:57;11.00;99.90
6118;DHT22;3089;48.202;11.510;2023-04-19T10:12:38;11.20;99.90
6118;DHT22;3089;48.202;11.510;2023-04-19T10:15:26;11.20;99.90
6118;DHT22;3089;48.202;11.510;2023-04-19T10:18:15;10.80;99.90
6118;DHT22;3089;48.202;11.510;2023-04-19T10:20:52;10.70;99.90
6118;DHT22;3089;48.202;11.510;2023-04-19T10:23:21;10.70;99.90
6118;DHT22;3089;48.202;11.510;2023-04-19T10:25:54;10.60;99.90
6118;DHT22;3089;48.202;11.510;2023-04-19T10:28:22;10.70;99.90
6118;DHT22;3089;48.202;11.510;2023-04-19T10:30:54;10.60;99.90
6118;DHT22;3089;48.202;11.510;2023-04-19T10:33:25;10.40;99.90
6118;DHT22;3089;48.202;11.510;2023-04-19T10:35:58;10.70;99.90
6118;DHT22;3089;48.202;11.510;2023-04-19T10:38:37;10.80;99.90
6118;DHT22;3089;48.202;11.510;2023-04-19T10:41:05;11.00;99.90
6118;DHT22;3089;48.202;11.510;2023-04-19T10:43:44;11.10;99.90
6118;DHT22;3089;48.202;11.510;2023-04-19T10:46:34;11.20;99.90
6118;DHT22;3089;48.202;11.510;2023-04-19T10:49:04;11.40;99.90
6118;DHT22;3089;48.202;11.510;2023-04-19T10:51:34;11.60;99.90
6118;DHT22;3089;48.202;11.510;2023-04-19T10:54:03;11.70;99.90
6118;DHT22;3089;48.202;11.510;2023-04-19T10:56:57;11.80;99.90
6118;DHT22;3089;48.202;11.510;2023-04-19T10:59:29;11.80;99.90
6118;DHT22;3089;48.202;11.510;2023-04-19T11:01:58;11.70;99.90
6118;DHT22;3089;48.202;11.510;2023-04-19T11:05:00;11.60;99.90
6118;DHT22;3089;48.202;11.510;2023-04-19T11:07:37;11.70;99.90
6118;DHT22;3089;48.202;11.510;2023-04-19T11:10:07;11.60;99.90
6118;DHT22;3089;48.202;11.510;2023-04-19T11:12:36;11.40;99.90
6118;DHT22;3089;48.202;11.510;2023-04-19T11:15:05;11.40;99.90
6118;DHT22;3089;48.202;11.510;2023-04-19T11:17:34;11.50;99.90
6118;DHT22;3089;48.202;11.510;2023-04-19T11:20:05;11.40;99.90
6118;DHT22;3089;48.202;11.510;2023-04-19T11:22:37;11.60;99.90
6118;DHT22;3089;48.202;11.510;2023-04-19T11:25:07;11.50;99.90
6118;DHT22;3089;48.202;11.510;2023-04-19T11:27:36;11.30;99.90
6118;DHT22;3089;48.202;11.510;2023-04-19T11:30:05;11.30;99.90
6118;DHT22;3089;48.202;11.510;2023-04-19T11:32:34;11.20;99.90
6118;DHT22;3089;48.202;11.510;2023-04-19T11:35:07;11.20;99.90
6118;DHT22;3089;48.202;11.510;2023-04-19T11:37:37;11.10;99.90
6118;DHT22;3089;48.202;11.510;2023-04-19T11:40:07;11.10;99.90
6118;DHT22;3089;48.202;11.510;2023-04-19T11:42:35;11.20;99.90
6118;DHT22;3089;48.202;11.510;2023-04-19T11:45:03;10.90;99.90
6118;DHT22;3089;48.202;11.510;2023-04-19T11:47:48;10.90;99.90
6118;DHT22;3089;48.202;11.510;2023-04-19T11:50:35;10.80;99.90
6118;DHT22;3089;48.202;11.510;2023-04-19T11:53:13;10.90;99.90
6118;DHT22;3089;48.202;11.510;2023-04-19T11:55:42;10.90;99.90
6118;DHT22;3089;48.202;11.510;2023-04-19T11:58:23;11.10;99.90
6118;DHT22;3089;48.202;11.510;2023-04-19T12:00:51;10.90;99.90
6118;DHT22;3089;48.202;11.510;2023-04-19T12:03:20;11.00;99.90
6118;DHT22;3089;48.202;11.510;2023-04-19T12:05:54;10.90;99.90
6118;DHT22;3089;48.202;11.510;2023-04-19T12:08:31;10.80;99.90
6118;DHT22;3089;48.202;11.510;2023-04-19T12:11:00;10.80;99.90
6118;DHT22;3089;48.202;11.510;2023-04-19T12:13:30;10.70;99.90
6118;DHT22;3089;48.202;11.510;2023-04-19T12:15:58;10.80;99.90
6118;DHT22;3089;48.202;11.510;2023-04-19T12:18:26;11.00;99.90
6118;DHT22;3089;48.202;11.510;2023-04-19T12:20:54;10.90;99.90
6118;DHT22;3089;48.202;11.510;2023-04-19T12:23:23;10.90;99.90
6118;DHT22;3089;48.202;11.510;2023-04-19T12:25:55;10.80;99.90
6118;DHT22;3089;48.202;11.510;2023-04-19T12:28:23;10.30;99.90
6118;DHT22;3089;48.202;11.510;2023-04-19T12:30:50;10.50;99.90
6118;DHT22;3089;48.202;11.510;2023-04-19T12:33:18;10.60;99.90
6118;DHT22;3089;48.202;11.510;2023-04-19T12:35:49;10.60;99.90
6118;DHT22;3089;48.202;11.510;2023-04-19T12:38:17;10.40;99.90
6118;DHT22;3089;48.202;11.510;2023-04-19T12:40:45;10.60;99.90
6118;DHT22;3089;48.202;11.510;2023-04-19T12:43:14;10.90;99.90
6118;DHT22;3089;48.202;11.510;2023-04-19T12:45:42;11.00;99.90
6118;DHT22;3089;48.202;11.510;2023-04-19T12:48:09;11.00;99.90
6118;DHT22;3089;48.202;11.510;2023-04-19T12:50:37;10.90;99.90
6118;DHT22;3089;48.202;11.510;2023-04-19T12:53:05;10.90;99.90
6118;DHT22;3089;48.202;11.510;2023-04-19T12:55:33;11.00;99.90
6118;DHT22;3089;48.202;11.510;2023-04-19T12:58:01;10.80;99.90
6118;DHT22;3089;48.202;11.510;2023-04-19T13:00:30;10.70;99.90
6118;DHT22;3089;48.202;11.510;2023-04-19T13:02:58;10.60;99.90
6118;DHT22;3089;48.202;11.510;2023-04-19T13:05:26;10.60;99.90
6118;DHT22;3089;48.202;11.510;2023-04-19T13:07:54;10.50;99.90
6118;DHT22;3089;48.202;11.510;2023-04-19T13:10:22;10.50;99.90
6118;DHT22;3089;48.202;11.510;2023-04-19T13:12:50;10.80;99.90
6118;DHT22;3089;48.202;11.510;2023-04-19T13:15:17;10.60;99.90
6118;DHT22;3089;48.202;11.510;2023-04-19T13:17:46;10.30;99.90
6118;DHT22;3089;48.202;11.510;2023-04-19T13:20:16;10.50;99.90
6118;DHT22;3089;48.202;11.510;2023-04-19T13:22:45;10.60;99.90
6118;DHT22;3089;48.202;11.510;2023-04-19T13:25:12;10.30;99.90
6118;DHT22;3089;48.202;11.510;2023-04-19T13:27:40;10.40;99.90
6118;DHT22;3089;48.202;11.510;2023-04-19T13:30:09;10.50;99.90
6118;DHT22;3089;48.202;11.510;2023-04-19T13:32:37;10.50;99.90
6118;DHT22;3089;48.202;11.510;2023-04-19T13:35:07;10.50;99.90
6118;DHT22;3089;48.202;11.510;2023-04-19T13:37:35;10.40;99.90
6118;DHT22;3089;48.202;11.510;2023-04-19T13:40:03;10.30;99.90
6118;DHT22;3089;48.202;11.510;2023-04-19T13:42:45;10.00;99.90
6118;DHT22;3089;48.202;11.510;2023-04-19T13:45:12;10.10;99.90
6118;DHT22;3089;48.202;11.510;2023-04-19T13:47:40;10.10;99.90
6118;DHT22;3089;48.202;11.510;2023-04-19T13:50:10;10.00;99.90
6118;DHT22;3089;48.202;11.510;2023-04-19T13:52:38;10.00;99.90
6118;DHT22;3089;48.202;11.510;2023-04-19T13:55:06;9.80;99.90
6118;DHT22;3089;48.202;11.510;2023-04-19T13:57:34;9.90;99.90
6118;DHT22;3089;48.202;11.510;2023-04-19T14:00:02;9.90;99.90
6118;DHT22;3089;48.202;11.510;2023-04-19T14:02:30;9.60;99.90
6118;DHT22;3089;48.202;11.510;2023-04-19T14:04:58;9.40;99.90
6118;DHT22;3089;48.202;11.510;2023-04-19T14:07:28;9.20;99.90
6118;DHT22;3089;48.202;11.510;2023-04-19T14:09:55;9.00;99.90
6118;DHT22;3089;48.202;11.510;2023-04-19T14:12:23;8.90;99.90
6118;DHT22;3089;48.202;11.510;2023-04-19T14:14:51;9.30;99.90
6118;DHT22;3089;48.202;11.510;2023-04-19T14:17:19;9.20;99.90
6118;DHT22;3089;48.202;11.510;2023-04-19T14:19:47;8.60;99.90
6118;DHT22;3089;48.202;11.510;2023-04-19T14:22:15;8.90;99.90
6118;DHT22;3089;48.202;11.510;2023-04-19T14:24:44;9.20;99.90
6118;DHT22;3089;48.202;11.510;2023-04-19T14:27:12;9.20;99.90
6118;DHT22;3089;48.202;11.510;2023-04-19T14:29:40;9.00;99.90
6118;DHT22;3089;48.202;11.510;2023-04-19T14:32:07;8.60;99.90
6118;DHT22;3089;48.202;11.510;2023-04-19T14:34:52;8.70;99.90
6118;DHT22;3089;48.202;11.510;2023-04-19T14:37:21;8.40;99.90
6118;DHT22;3089;48.202;11.510;2023-04-19T14:39:51;8.60;99.90
6118;DHT22;3089;48.202;11.510;2023-04-19T14:42:19;8.20;99.90
6118;DHT22;3089;48.202;11.510;2023-04-19T14:44:50;7.90;99.90
6118;DHT22;3089;48.202;11.510;2023-04-19T14:47:18;8.30;99.90
6118;DHT22;3089;48.202;11.510;2023-04-19T14:49:46;7.60;99.90
6118;DHT22;3089;48.202;11.510;2023-04-19T14:52:14;8.00;99.90
6118;DHT22;3089;48.202;11.510;2023-04-19T14:54:42;7.40;99.90
6118;DHT22;3089;48.202;11.510;2023-04-19T14:57:11;7.90;99.90
6118;DHT22;3089;48.202;11.510;2023-04-19T14:59:39;7.00;99.90
6118;DHT22;3089;48.202;11.510;2023-04-19T15:02:07;7.40;99.90
6118;DHT22;3089;48.202;11.510;2023-04-19T15:04:36;6.90;99.90
6118;DHT22;3089;48.202;11.510;2023-04-19T15:07:07;7.30;99.90
6118;DHT22;3089;48.202;11.510;2023-04-19T15:09:35;7.70;99.90
6118;DHT22;3089;48.202;11.510;2023-04-19T15:12:03;7.70;99.90
6118;DHT22;3089;48.202;11.510;2023-04-19T15:14:32;7.50;99.90
6118;DHT22;3089;48.202;11.510;2023-04-19T15:17:01;7.50;99.90
6118;DHT22;3089;48.202;11.510;2023-04-19T15:19:29;7.10;99.90
6118;DHT22;3089;48.202;11.510;2023-04-19T15:21:57;6.90;99.90
6118;DHT22;3089;48.202;11.510;2023-04-19T15:24:24;7.00;99.90
6118;DHT22;3089;48.202;11.510;2023-04-19T15:26:52;7.30;99.90
6118;DHT22;3089;48.202;11.510;2023-04-19T15:29:20;7.50;99.90
6118;DHT22;3089;48.202;11.510;2023-04-19T15:31:49;7.00;99.90
6118;DHT22;3089;48.202;11.510;2023-04-19T15:34:17;6.70;99.90
6118;DHT22;3089;48.202;11.510;2023-04-19T15:36:45;6.50;99.90
6118;DHT22;3089;48.202;11.510;2023-04-19T15:39:13;6.80;99.90
6118;DHT22;3089;48.202;11.510;2023-04-19T15:41:41;7.40;99.90
6118;DHT22;3089;48.202;11.510;2023-04-19T15:44:09;7.40;99.90
6118;DHT22;3089;48.202;11.510;2023-04-19T15:46:36;7.20;99.90
6118;DHT22;3089;48.202;11.510;2023-04-19T15:49:05;7.30;99.90
6118;DHT22;3089;48.202;11.510;2023-04-19T15:51:33;7.00;99.90
6118;DHT22;3089;48.202;11.510;2023-04-19T15:54:01;7.20;99.90
6118;DHT22;3089;48.202;11.510;2023-04-19T15:56:29;7.60;99.90
6118;DHT22;3089;48.202;11.510;2023-04-19T15:58:57;7.20;99.90
6118;DHT22;3089;48.202;11.510;2023-04-19T16:01:24;7.50;99.90
6118;DHT22;3089;48.202;11.510;2023-04-19T16:03:52;6.90;99.90
6118;DHT22;3089;48.202;11.510;2023-04-19T16:06:22;6.40;99.90
6118;DHT22;3089;48.202;11.510;2023-04-19T16:08:49;6.60;99.90
6118;DHT22;3089;48.202;11.510;2023-04-19T16:11:17;6.60;99.90
6118;DHT22;3089;48.202;11.510;2023-04-19T16:13:45;6.20;99.90